Time;durP1;ratioP1;P1;durP2;ratioP2;P2;SDS_P1;SDS_P2;PMS_P1;PMS_P2;Temp;Humidity;BMP_temperature;BMP_pressure;BME280_temperature;BME280_humidity;BME280_pressure;Samples;Min_cycle;Max_cycle;Signal;HPM_P1;HPM_P2
2022/04/09 00:01:20;;;;;;;11.45;4.25;;;;;;;5.40;89.12;100552.72;5063773;28;20063;-56
2022/04/09 00:03:48;;;;;;;9.77;4.28;;;;;;;5.01;88.53;100556.50;5073124;28;20044;-56
2022/04/09 00:06:15;;;;;;;9.55;4.70;;;;;;;4.99;88.78;100569.59;5073687;28;20060;-57
2022/04/09 00:08:42;;;;;;;9.52;4.60;;;;;;;5.26;88.85;100556.38;5072506;28;20041;-59
2022/04/09 00:11:10;;;;;;;8.73;4.10;;;;;;;5.16;88.92;100565.41;5083186;28;20048;-57
2022/04/09 00:13:37;;;;;;;6.47;3.55;;;;;;;5.18;88.51;100563.22;5079720;28;20072;-57
2022/04/09 00:16:05;;;;;;;8.43;3.70;;;;;;;5.18;88.67;100574.16;5067302;28;20060;-58
2022/04/09 00:18:32;;;;;;;10.25;4.13;;;;;;;5.37;87.48;100588.78;5068639;28;20059;-57
2022/04/09 00:20:59;;;;;;;6.90;3.55;;;;;;;5.33;86.75;100576.81;5074830;28;20057;-57
2022/04/09 00:23:26;;;;;;;7.82;3.75;;;;;;;5.51;87.35;100580.75;5070826;28;20052;-56
2022/04/09 00:25:54;;;;;;;7.78;3.70;;;;;;;5.39;86.83;100581.13;5066190;28;20049;-58
2022/04/09 00:28:21;;;;;;;10.68;4.20;;;;;;;5.31;86.09;100579.00;5074806;28;20048;-59
2022/04/09 00:30:48;;;;;;;8.73;3.75;;;;;;;5.20;86.89;100592.97;5074735;28;20419;-56
2022/04/09 00:33:15;;;;;;;13.52;4.28;;;;;;;5.26;86.90;100594.59;5074671;28;20059;-54
2022/04/09 00:35:43;;;;;;;12.75;3.80;;;;;;;5.31;87.74;100589.94;5073161;28;20056;-59
2022/04/09 00:38:10;;;;;;;7.10;3.50;;;;;;;5.44;87.22;100578.34;5064288;28;20439;-58
2022/04/09 00:40:38;;;;;;;8.75;3.40;;;;;;;5.60;86.53;100581.81;5066872;28;20051;-57
2022/04/09 00:43:06;;;;;;;8.95;3.90;;;;;;;5.38;86.33;100574.03;5073406;28;20067;-58
2022/04/09 00:45:33;;;;;;;10.80;4.38;;;;;;;5.61;86.69;100580.72;5072760;28;20052;-56
2022/04/09 00:48:02;;;;;;;8.98;3.97;;;;;;;5.66;86.66;100583.41;5071237;28;20071;-58
2022/04/09 00:50:29;;;;;;;9.95;3.83;;;;;;;5.86;84.76;100591.47;5036566;28;20064;-57
2022/04/09 00:52:59;;;;;;;9.48;3.90;;;;;;;5.61;83.72;100591.66;5060910;28;20053;-58
2022/04/09 00:58:17;;;;;;;9.77;4.60;;;;;;;5.63;84.35;100603.13;5062153;28;20048;-57
2022/04/09 01:00:45;;;;;;;7.90;3.47;;;;;;;5.82;82.82;100604.06;5091363;28;20064;-56
2022/04/09 01:03:18;;;;;;;9.40;3.60;;;;;;;5.73;82.93;100603.88;5072765;28;20493;-57
2022/04/09 01:05:48;;;;;;;7.70;3.30;;;;;;;5.71;82.69;100606.06;5062415;28;20501;-55
2022/04/09 01:08:16;;;;;;;6.47;3.45;;;;;;;5.80;82.61;100603.53;5077324;28;20472;-56
2022/04/09 01:10:50;;;;;;;5.10;2.53;;;;;;;6.08;81.89;100602.78;5029381;28;20049;-58
2022/04/09 01:13:19;;;;;;;7.97;3.03;;;;;;;5.94;80.85;100604.56;5068848;28;20063;-57
2022/04/09 01:15:46;;;;;;;7.70;3.10;;;;;;;6.03;80.99;100608.31;5076756;28;20067;-58
2022/04/09 01:18:15;;;;;;;8.20;3.70;;;;;;;6.22;80.70;100614.72;5078091;28;20056;-55
2022/04/09 01:20:46;;;;;;;6.50;2.83;;;;;;;6.35;80.11;100611.28;5043585;28;20415;-57
2022/04/09 01:23:14;;;;;;;5.25;2.47;;;;;;;6.36;79.55;100610.16;5044217;28;20424;-54
2022/04/09 01:25:42;;;;;;;7.70;2.22;;;;;;;6.38;78.99;100615.38;5076282;28;20048;-57
2022/04/09 01:28:10;;;;;;;4.00;1.92;;;;;;;6.35;79.33;100637.81;5076469;28;20059;-54
2022/04/09 01:30:39;;;;;;;5.75;2.42;;;;;;;6.43;78.58;100640.75;5075061;28;20048;-55
2022/04/09 01:33:06;;;;;;;4.07;2.15;;;;;;;6.07;78.75;100649.53;5074669;28;20045;-55
2022/04/09 01:35:33;;;;;;;6.70;2.50;;;;;;;5.96;81.05;100654.28;5068082;28;20055;-56
2022/04/09 01:38:01;;;;;;;4.53;2.20;;;;;;;5.76;81.66;100662.59;5049181;28;20055;-57
2022/04/09 01:40:29;;;;;;;8.65;2.42;;;;;;;5.51;81.91;100671.75;5042658;28;20048;-55
2022/04/09 01:42:56;;;;;;;7.68;2.42;;;;;;;5.53;82.17;100671.44;5076148;28;20048;-57
2022/04/09 01:45:24;;;;;;;6.40;2.40;;;;;;;5.61;82.97;100668.16;5074734;28;20056;-60
2022/04/09 01:47:52;;;;;;;6.00;2.40;;;;;;;5.45;83.53;100672.88;5070766;28;20063;-57
2022/04/09 01:50:19;;;;;;;5.25;2.60;;;;;;;5.41;85.52;100671.78;5076500;28;20444;-59
2022/04/09 01:52:48;;;;;;;7.35;2.75;;;;;;;5.48;85.10;100671.47;5094093;28;20052;-58
2022/04/09 01:55:15;;;;;;;5.10;2.80;;;;;;;5.59;84.76;100668.44;5059000;28;20408;-57
2022/04/09 01:57:46;;;;;;;8.23;3.00;;;;;;;5.73;84.07;100663.16;5059476;28;20499;-55
2022/04/09 02:00:15;;;;;;;8.10;3.45;;;;;;;5.71;83.88;100666.19;5074235;28;20636;-57
2022/04/09 02:02:46;;;;;;;5.30;3.05;;;;;;;5.71;84.01;100671.63;5075136;28;20511;-57
2022/04/09 02:05:14;;;;;;;5.47;3.22;;;;;;;5.81;83.46;100670.75;5075437;28;20051;-54
2022/04/09 02:07:44;;;;;;;;;;;;;;;5.87;83.62;100672.38;5076028;28;20048;-55
2022/04/09 02:10:11;;;;;;;6.10;2.63;;;;;;;5.66;83.76;100671.69;5061561;28;19921;-57
2022/04/09 02:12:41;;;;;;;7.25;3.40;;;;;;;5.48;83.01;100676.94;5073295;28;20500;-58
2022/04/09 02:15:11;;;;;;;5.65;3.05;;;;;;;5.73;83.21;100680.38;5050699;28;20052;-56
2022/04/09 02:17:40;;;;;;;5.80;3.00;;;;;;;5.40;83.43;100674.81;5067233;28;20057;-56
2022/04/09 02:20:10;;;;;;;5.93;3.20;;;;;;;4.91;85.90;100687.53;5076219;28;20052;-57
2022/04/09 02:22:40;;;;;;;6.10;3.22;;;;;;;4.92;87.92;100689.16;5068609;28;20056;-58
2022/04/09 02:25:10;;;;;;;8.95;3.88;;;;;;;4.81;88.01;100684.84;5063601;28;20048;-58
2022/04/09 02:27:37;;;;;;;;;;;;;;;4.97;88.73;100686.44;5079106;28;20049;-56
2022/04/09 02:30:08;;;;;;;6.13;3.42;;;;;;;5.36;87.57;100684.66;5072397;28;19943;-58
2022/04/09 02:32:49;;;;;;;7.20;3.50;;;;;;;5.38;87.17;100701.59;5073786;28;20048;-55
2022/04/09 02:35:20;;;;;;;8.77;4.28;;;;;;;5.41;87.12;100714.66;5091896;28;20052;-59
2022/04/09 02:37:47;;;;;;;8.80;3.97;;;;;;;5.45;87.06;100708.38;5069053;28;20064;-58
2022/04/09 02:40:15;;;;;;;7.53;3.65;;;;;;;5.26;86.77;100712.84;5069802;28;20044;-56
2022/04/09 02:42:42;;;;;;;6.72;3.92;;;;;;;5.06;87.70;100712.88;5074230;28;20052;-55
2022/04/09 02:45:11;;;;;;;8.57;4.35;;;;;;;5.03;87.70;100707.97;5078596;28;20056;-59
2022/04/09 02:47:40;;;;;;;8.87;4.33;;;;;;;5.01;88.20;100718.34;5072731;28;20056;-57
2022/04/09 02:50:13;;;;;;;5.93;3.97;;;;;;;5.01;89.09;100710.16;5075007;28;20476;-57
2022/04/09 02:52:44;;;;;;;7.78;3.95;;;;;;;5.24;89.31;100723.22;5072915;28;20059;-57
2022/04/09 02:55:13;;;;;;;6.82;4.07;;;;;;;5.29;89.74;100719.63;5066807;28;20040;-60
2022/04/09 02:57:42;;;;;;;7.07;4.28;;;;;;;5.33;88.20;100718.00;5091372;28;20052;-58
2022/04/09 03:00:12;;;;;;;7.38;4.35;;;;;;;5.33;87.85;100718.81;5058346;28;20404;-58
2022/04/09 03:02:42;;;;;;;12.48;4.95;;;;;;;5.25;87.69;100719.38;5074484;28;20052;-56
2022/04/09 03:05:19;;;;;;;7.85;4.70;;;;;;;5.26;88.46;100736.59;5060422;28;20051;-56
2022/04/09 03:07:46;;;;;;;7.55;4.43;;;;;;;5.25;88.78;100754.03;5086936;28;20048;-61
2022/04/09 03:10:13;;;;;;;10.75;4.85;;;;;;;5.12;89.56;100758.19;5075957;28;20044;-62
2022/04/09 03:12:45;;;;;;;9.00;4.60;;;;;;;5.08;90.72;100759.84;5070977;28;20067;-61
2022/04/09 03:15:15;;;;;;;8.48;4.90;;;;;;;5.21;89.94;100758.44;5045265;28;20071;-61
2022/04/09 03:17:43;;;;;;;7.60;4.82;;;;;;;5.30;89.53;100762.25;5073986;28;20052;-61
2022/04/09 03:20:11;;;;;;;9.57;4.85;;;;;;;5.33;89.93;100750.75;5074447;28;20063;-61
2022/04/09 03:22:46;;;;;;;9.38;5.53;;;;;;;5.40;89.98;100740.34;5073924;28;20056;-62
2022/04/09 03:25:18;;;;;;;7.80;4.88;;;;;;;5.48;89.28;100737.03;5061073;28;20059;-61
2022/04/09 03:27:49;;;;;;;7.95;4.90;;;;;;;5.57;88.42;100727.16;5060554;28;20049;-62
2022/04/09 03:30:16;;;;;;;7.90;4.78;;;;;;;5.55;87.06;100743.03;5064374;28;20056;-61
2022/04/09 03:32:45;;;;;;;6.78;4.22;;;;;;;5.76;86.81;100744.56;5068215;28;20135;-62
2022/04/09 03:35:18;;;;;;;11.32;4.78;;;;;;;5.86;86.16;100752.75;5074338;28;20044;-62
2022/04/09 03:37:47;;;;;;;7.60;4.32;;;;;;;5.96;85.38;100760.09;5089405;28;20052;-61
2022/04/09 03:40:19;;;;;;;8.27;3.95;;;;;;;5.55;85.14;100770.34;5068329;28;20409;-61
2022/04/09 03:42:46;;;;;;;7.97;3.97;;;;;;;5.34;86.32;100766.03;5075342;28;20060;-62
2022/04/09 03:45:14;;;;;;;10.50;4.68;;;;;;;5.48;87.02;100773.38;5054091;28;20076;-60
2022/04/09 03:47:42;;;;;;;9.00;4.50;;;;;;;5.89;86.11;100770.50;5070478;28;20701;-61
2022/04/09 03:50:14;;;;;;;8.90;4.40;;;;;;;5.94;85.72;100776.78;5073745;28;20174;-61
2022/04/09 03:52:43;;;;;;;;;;;;;;;5.95;85.74;100772.09;5058305;28;20052;-61
2022/04/09 03:55:11;;;;;;;8.43;4.13;;;;;;;5.85;85.20;100775.72;5071817;28;19921;-61
2022/04/09 03:57:38;;;;;;;8.55;4.10;;;;;;;5.80;84.81;100781.19;5057627;28;20052;-61
2022/04/09 04:00:08;;;;;;;8.25;3.53;;;;;;;5.62;83.52;100776.31;5082261;28;20045;-61
2022/04/09 04:02:45;;;;;;;6.65;3.45;;;;;;;5.51;82.33;100774.72;5089150;28;20059;-62
2022/04/09 04:05:16;;;;;;;6.55;3.33;;;;;;;5.65;83.43;100776.59;5073692;28;20059;-61
2022/04/09 04:07:45;;;;;;;9.25;3.47;;;;;;;5.43;83.78;100784.31;5073697;28;20057;-61
2022/04/09 04:10:13;;;;;;;7.15;3.80;;;;;;;4.94;83.53;100788.78;5085815;28;20056;-62
2022/04/09 04:12:45;;;;;;;8.10;4.05;;;;;;;4.72;84.80;100792.91;5050143;28;20391;-63
2022/04/09 04:15:15;;;;;;;9.73;4.53;;;;;;;4.55;86.20;100782.22;5071008;28;20419;-61
2022/04/09 04:17:46;;;;;;;9.60;4.03;;;;;;;4.43;86.58;100781.69;5059962;28;20406;-61
2022/04/09 04:20:19;;;;;;;10.07;4.30;;;;;;;4.64;87.22;100782.53;5082003;28;20041;-63
2022/04/09 04:22:51;;;;;;;9.60;3.88;;;;;;;4.41;86.94;100781.97;5076814;28;20124;-61
2022/04/09 04:25:19;;;;;;;7.00;4.38;;;;;;;4.36;87.64;100783.84;5073201;28;20049;-59
2022/04/09 04:27:51;;;;;;;9.50;4.10;;;;;;;4.58;87.39;100785.25;5056103;28;20530;-62
2022/04/09 04:30:21;;;;;;;6.70;3.95;;;;;;;4.88;86.81;100789.06;5053581;28;20060;-62
2022/04/09 04:32:50;;;;;;;6.53;3.47;;;;;;;4.94;85.71;100788.78;5075656;28;20055;-61
2022/04/09 04:35:21;;;;;;;8.05;4.30;;;;;;;5.12;85.00;100787.41;5065276;28;20060;-61
2022/04/09 04:37:49;;;;;;;8.80;3.90;;;;;;;5.14;83.81;100790.69;5072473;28;20048;-63
2022/04/09 04:40:22;;;;;;;6.80;3.50;;;;;;;5.21;83.96;100775.63;5070305;28;20056;-61
2022/04/09 04:42:55;;;;;;;7.38;3.92;;;;;;;5.31;83.35;100781.09;5057969;28;20053;-62
2022/04/09 04:45:24;;;;;;;8.32;3.88;;;;;;;5.46;83.34;100782.94;5055453;28;20052;-61
2022/04/09 04:47:55;;;;;;;6.15;3.55;;;;;;;5.42;83.17;100792.81;5080810;28;20051;-61
2022/04/09 04:50:26;;;;;;;7.25;4.00;;;;;;;5.44;83.34;100787.88;5069182;28;20052;-62
2022/04/09 04:52:55;;;;;;;8.82;3.90;;;;;;;5.58;83.43;100794.38;5068357;28;20059;-62
2022/04/09 04:55:25;;;;;;;8.48;4.25;;;;;;;5.35;82.55;100803.19;5071735;28;20510;-61
2022/04/09 04:57:52;;;;;;;8.65;4.13;;;;;;;5.44;82.92;100796.88;5083703;28;20056;-61
2022/04/09 05:00:33;;;;;;;8.07;4.70;;;;;;;5.70;83.57;100809.34;5060921;28;20044;-62
2022/04/09 05:03:05;;;;;;;9.65;4.75;;;;;;;5.73;83.20;100802.53;5058995;28;20054;-62
2022/04/09 05:05:35;;;;;;;7.55;4.95;;;;;;;5.72;83.43;100809.91;5084698;28;20403;-62
2022/04/09 05:08:04;;;;;;;9.52;5.35;;;;;;;6.01;82.45;100810.09;5055591;28;20068;-62
2022/04/09 05:10:32;;;;;;;8.27;5.38;;;;;;;5.75;82.71;100812.06;5052768;28;20052;-62
2022/04/09 05:13:02;;;;;;;10.75;6.15;;;;;;;5.80;82.63;100811.25;5070280;28;20049;-63
2022/04/09 05:15:32;;;;;;;9.75;6.28;;;;;;;5.80;82.57;100819.44;5068429;28;20053;-61
2022/04/09 05:18:01;;;;;;;8.60;5.63;;;;;;;5.59;83.97;100806.94;5074267;28;20048;-62
2022/04/09 05:20:30;;;;;;;11.65;6.25;;;;;;;5.65;84.24;100822.22;5073009;28;20135;-61
2022/04/09 05:23:03;;;;;;;10.68;7.00;;;;;;;5.86;84.15;100814.81;5073187;28;20068;-61
2022/04/09 05:25:33;;;;;;;10.93;6.95;;;;;;;5.99;83.30;100814.19;5073059;28;20052;-62
2022/04/09 05:28:04;;;;;;;14.52;9.07;;;;;;;5.92;82.82;100810.94;5078319;28;20296;-62
2022/04/09 05:30:37;;;;;;;13.73;7.75;;;;;;;5.98;82.56;100813.38;5071929;28;20527;-62
2022/04/09 05:33:05;;;;;;;12.18;7.85;;;;;;;6.07;83.25;100821.78;5056459;28;20051;-62
2022/04/09 05:35:33;;;;;;;10.95;7.38;;;;;;;6.06;82.80;100823.72;5072784;28;20053;-62
2022/04/09 05:38:01;;;;;;;12.98;8.38;;;;;;;6.07;82.81;100825.34;5068690;28;20053;-60
2022/04/09 05:40:31;;;;;;;19.70;11.98;;;;;;;5.90;83.08;100827.63;5061650;28;20052;-62
2022/04/09 05:43:06;;;;;;;24.75;14.00;;;;;;;6.26;83.19;100825.56;5072694;28;20044;-62
2022/04/09 05:45:34;;;;;;;15.18;9.65;;;;;;;6.19;82.54;100833.25;5061038;28;20056;-62
2022/04/09 05:48:02;;;;;;;10.70;7.45;;;;;;;6.36;82.29;100830.94;5076969;28;20546;-62
2022/04/09 05:50:41;;;;;;;11.20;7.63;;;;;;;6.48;81.93;100834.16;5076180;28;20515;-61
2022/04/09 05:53:08;;;;;;;13.52;8.57;;;;;;;6.29;82.50;100839.47;5077604;28;20048;-56
2022/04/09 05:55:39;;;;;;;11.75;7.72;;;;;;;6.50;82.05;100846.44;5094333;28;20044;-57
2022/04/09 05:58:07;;;;;;;12.13;8.13;;;;;;;6.42;82.16;100844.31;5077314;28;20057;-58
2022/04/09 06:00:37;;;;;;;11.45;8.20;;;;;;;6.25;83.19;100840.31;5064425;28;20056;-59
2022/04/09 06:03:17;;;;;;;11.55;8.63;;;;;;;6.24;84.21;100839.47;5073208;28;20044;-57
2022/04/09 06:05:45;;;;;;;12.30;8.35;;;;;;;6.18;84.63;100851.56;5076099;28;20045;-58
2022/04/09 06:08:20;;;;;;;12.23;8.00;;;;;;;6.32;84.31;100838.06;5059722;28;20052;-62
2022/04/09 06:10:47;;;;;;;12.18;7.90;;;;;;;6.30;84.43;100837.53;5075795;28;20432;-58
2022/04/09 06:13:15;;;;;;;13.55;8.15;;;;;;;6.32;84.10;100855.31;5075327;28;20049;-57
2022/04/09 06:16:34;;;;;;;13.23;7.97;;;;;;;6.47;83.94;100851.66;5069042;28;20052;-60
2022/04/09 06:19:19;;;;;;;14.65;8.90;;;;;;;6.54;83.65;100853.00;5053127;28;20075;-57
2022/04/09 06:21:47;;;;;;;16.27;9.85;;;;;;;6.84;82.84;100866.47;5080450;28;20056;-57
2022/04/09 06:24:19;;;;;;;12.32;7.95;;;;;;;6.70;82.90;100872.84;5058954;28;20048;-58
2022/04/09 06:26:48;;;;;;;15.18;8.32;;;;;;;6.66;83.09;100875.34;5075630;28;20428;-57
2022/04/09 06:29:16;;;;;;;14.20;7.90;;;;;;;6.81;82.75;100885.38;5075239;28;20048;-55
2022/04/09 06:31:47;;;;;;;10.38;6.78;;;;;;;7.02;83.15;100881.41;5058092;28;20049;-58
2022/04/09 06:34:19;;;;;;;11.00;6.10;;;;;;;6.95;82.36;100885.56;5070523;28;20411;-57
2022/04/09 06:36:47;;;;;;;12.13;5.95;;;;;;;6.72;82.68;100893.38;5075158;28;20053;-57
2022/04/09 06:39:16;;;;;;;11.50;5.95;;;;;;;6.76;81.91;100899.13;5058748;28;20044;-58
2022/04/09 06:41:44;;;;;;;9.18;5.18;;;;;;;6.49;82.70;100896.81;5055989;28;20055;-55
2022/04/09 06:44:19;;;;;;;11.60;6.07;;;;;;;6.79;82.44;100893.06;5066963;28;20055;-56
2022/04/09 06:46:52;;;;;;;10.98;6.18;;;;;;;6.95;82.31;100900.06;5075358;28;20057;-56
2022/04/09 06:49:40;;;;;;;13.77;5.70;;;;;;;6.44;83.55;100905.03;5067517;28;20055;-55
2022/04/09 06:52:16;;;;;;;9.00;4.93;;;;;;;6.45;83.83;100906.66;5059302;28;20044;-55
2022/04/09 06:55:04;;;;;;;7.90;5.28;;;;;;;6.45;84.16;100903.13;5085407;28;20404;-58
2022/04/09 06:57:35;;;;;;;9.10;4.70;;;;;;;6.44;83.68;100910.50;5068781;28;20067;-55
2022/04/09 07:00:04;;;;;;;9.60;6.13;;;;;;;6.64;83.53;100921.34;5074779;28;20052;-60
2022/04/09 07:02:34;;;;;;;10.75;5.22;;;;;;;6.67;83.24;100923.53;5058594;28;20056;-58
2022/04/09 07:05:02;;;;;;;9.63;5.03;;;;;;;6.39;84.26;100920.66;5076001;28;20052;-56
2022/04/09 07:07:30;;;;;;;16.83;5.75;;;;;;;6.30;84.90;100930.53;5075840;28;20044;-58
2022/04/09 07:10:06;;;;;;;18.13;5.65;;;;;;;6.35;85.41;100928.59;5070198;28;20044;-56
2022/04/09 07:12:33;;;;;;;8.35;4.22;;;;;;;6.53;84.76;100936.19;5074959;28;20056;-59
2022/04/09 07:15:01;;;;;;;9.20;4.03;;;;;;;6.94;83.52;100936.75;5076146;28;20048;-57
2022/04/09 07:17:29;;;;;;;12.05;4.40;;;;;;;7.17;82.85;100938.78;5075359;28;20048;-58
2022/04/09 07:20:01;;;;;;;17.50;4.28;;;;;;;6.67;82.81;100942.69;5073972;28;20048;-56
2022/04/09 07:22:28;;;;;;;12.55;4.18;;;;;;;6.38;84.50;100949.13;5075927;28;20045;-57
2022/04/09 07:24:56;;;;;;;10.82;4.20;;;;;;;6.75;83.62;100947.56;5067642;28;20037;-56
2022/04/09 07:27:44;;;;;;;10.30;3.97;;;;;;;6.73;82.57;100943.44;5053489;28;20057;-58
2022/04/09 07:30:19;;;;;;;17.88;4.70;;;;;;;6.64;82.55;100939.69;5070776;28;20055;-57
2022/04/09 07:32:47;;;;;;;9.68;3.65;;;;;;;6.69;83.56;100945.13;5073803;28;20045;-57
2022/04/09 07:35:15;;;;;;;14.48;4.00;;;;;;;6.82;82.82;100941.75;5069799;28;20060;-59
2022/04/09 07:37:51;;;;;;;12.70;3.92;;;;;;;6.92;83.02;100946.38;5065464;28;20045;-57
2022/04/09 07:40:20;;;;;;;13.30;4.15;;;;;;;6.48;82.65;100949.06;5065288;28;20071;-59
2022/04/09 07:42:48;;;;;;;14.82;4.47;;;;;;;6.20;85.51;100957.94;5066235;28;20051;-56
2022/04/09 07:45:15;;;;;;;13.20;4.30;;;;;;;6.25;85.23;100953.28;5065344;28;20045;-58
2022/04/09 07:47:43;;;;;;;15.25;4.20;;;;;;;6.45;85.39;100955.91;5063744;28;20056;-57
2022/04/09 07:50:11;;;;;;;8.52;3.70;;;;;;;6.49;85.04;100957.00;5065292;28;20040;-55
2022/04/09 07:52:42;;;;;;;7.38;3.95;;;;;;;5.81;84.83;100965.09;5067948;28;20048;-59
2022/04/09 07:55:12;;;;;;;8.38;4.10;;;;;;;6.15;85.71;100977.09;5074840;28;20040;-57
2022/04/09 07:57:39;;;;;;;11.60;4.57;;;;;;;6.07;84.03;100973.00;5066370;28;20047;-57
2022/04/09 08:00:07;;;;;;;11.57;4.10;;;;;;;5.99;85.16;100972.75;5061000;28;20056;-57
2022/04/09 08:02:38;;;;;;;9.27;4.07;;;;;;;6.18;84.91;100982.00;5072967;28;20055;-57
2022/04/09 08:05:05;;;;;;;11.55;5.22;;;;;;;5.89;85.13;100987.28;5070456;28;20045;-58
2022/04/09 08:07:33;;;;;;;9.68;4.32;;;;;;;5.54;87.03;100979.09;5061384;28;20051;-60
2022/04/09 08:10:00;;;;;;;8.38;4.63;;;;;;;5.66;86.94;100980.44;5062433;28;20052;-61
2022/04/09 08:12:27;;;;;;;9.35;3.83;;;;;;;5.73;86.53;100988.34;5066778;28;20045;-61
2022/04/09 08:14:55;;;;;;;11.23;4.20;;;;;;;5.76;86.84;100974.13;5062904;28;20061;-61
2022/04/09 08:17:22;;;;;;;9.50;4.75;;;;;;;6.04;86.10;100978.22;5062602;28;20059;-61
2022/04/09 08:19:50;;;;;;;5.47;3.75;;;;;;;6.30;86.18;100986.06;5058251;28;20055;-63
2022/04/09 08:22:18;;;;;;;7.30;3.58;;;;;;;6.35;82.64;100983.31;5070939;28;20122;-62
2022/04/09 08:24:46;;;;;;;8.10;3.85;;;;;;;6.40;82.19;100986.03;5072251;28;20082;-62
2022/04/09 08:27:13;;;;;;;8.00;3.70;;;;;;;6.27;82.31;100994.84;5060500;28;20075;-60
2022/04/09 08:29:40;;;;;;;7.93;3.88;;;;;;;6.16;82.17;100995.97;5069428;28;20496;-62
2022/04/09 08:32:08;;;;;;;7.90;4.07;;;;;;;5.81;83.32;101006.09;5070471;28;20044;-61
2022/04/09 08:34:37;;;;;;;8.68;4.18;;;;;;;5.45;85.41;101008.88;5036620;28;20053;-62
2022/04/09 08:37:08;;;;;;;7.25;3.90;;;;;;;5.71;84.92;101012.41;5089812;28;20060;-62
2022/04/09 08:39:35;;;;;;;7.60;4.15;;;;;;;5.80;83.72;101016.22;5072825;28;20159;-59
2022/04/09 08:42:03;;;;;;;7.30;4.25;;;;;;;5.73;82.31;101018.41;5071037;28;20064;-59
2022/04/09 08:44:31;;;;;;;8.57;3.75;;;;;;;5.98;82.80;101025.81;5073100;28;20049;-59
2022/04/09 08:46:58;;;;;;;9.82;4.22;;;;;;;6.03;82.65;101031.28;5066204;28;20068;-61
2022/04/09 08:49:28;;;;;;;8.48;3.78;;;;;;;6.07;83.14;101027.69;5066622;28;20049;-61
2022/04/09 08:51:56;;;;;;;7.47;4.00;;;;;;;5.80;82.51;101040.81;5054397;28;20044;-62
2022/04/09 08:54:23;;;;;;;7.85;4.18;;;;;;;5.92;83.52;101040.56;5071380;28;20056;-59
2022/04/09 08:56:50;;;;;;;9.10;4.82;;;;;;;5.87;83.62;101044.13;5073837;28;20056;-62
2022/04/09 08:59:18;;;;;;;7.22;3.80;;;;;;;5.48;83.72;101046.56;5071009;28;20044;-61
2022/04/09 09:01:45;;;;;;;5.50;3.80;;;;;;;5.26;83.48;101061.53;5067573;28;20060;-61
2022/04/09 09:04:13;;;;;;;5.65;3.83;;;;;;;5.27;84.44;101053.06;5059218;28;20041;-58
2022/04/09 09:06:44;;;;;;;8.55;3.65;;;;;;;5.56;84.54;101050.66;5072281;28;20045;-62
2022/04/09 09:09:29;;;;;;;7.30;3.63;;;;;;;5.72;82.78;101058.59;5060610;28;20052;-61
2022/04/09 09:11:59;;;;;;;6.72;3.63;;;;;;;5.96;83.27;101047.97;5073595;28;20048;-63
2022/04/09 09:14:32;;;;;;;;;;;;;;;5.91;81.65;101055.34;5074621;28;20049;-62
2022/04/09 09:17:01;;;;;;;6.38;3.90;;;;;;;5.61;81.33;101046.00;5074107;28;19920;-60
2022/04/09 09:19:45;;;;;;;6.18;4.13;;;;;;;5.82;82.37;101065.97;5065543;28;20660;-62
2022/04/09 09:22:13;;;;;;;5.38;3.55;;;;;;;5.25;80.29;101070.81;5048378;28;20051;-61
2022/04/09 09:24:41;;;;;;;7.53;4.10;;;;;;;5.21;82.88;101076.00;5070415;28;20060;-61
2022/04/09 09:27:09;;;;;;;6.97;4.00;;;;;;;5.10;82.08;101074.34;5068691;28;20052;-62
2022/04/09 09:29:36;;;;;;;5.57;4.03;;;;;;;5.29;82.03;101078.22;5073482;28;20049;-61
2022/04/09 09:32:06;;;;;;;7.03;4.18;;;;;;;5.72;81.89;101076.88;5077973;28;20052;-60
2022/04/09 09:34:34;;;;;;;8.02;4.00;;;;;;;6.05;80.81;101084.56;5065406;28;20049;-63
2022/04/09 09:37:01;;;;;;;5.68;3.75;;;;;;;5.84;78.71;101093.88;5075848;28;20056;-60
2022/04/09 09:39:33;;;;;;;6.68;4.20;;;;;;;5.36;79.40;101094.34;5066419;28;20056;-62
2022/04/09 09:42:18;;;;;;;6.88;4.00;;;;;;;5.65;80.93;101100.94;5070115;28;20373;-62
2022/04/09 09:44:45;;;;;;;6.55;3.50;;;;;;;5.73;78.22;101094.94;5070728;28;20051;-60
2022/04/09 09:47:14;;;;;;;6.38;4.22;;;;;;;5.62;78.79;101115.13;5064153;28;20049;-60
2022/04/09 09:49:47;;;;;;;5.63;3.80;;;;;;;5.91;78.26;101096.34;5070695;28;20052;-61
2022/04/09 09:52:14;;;;;;;6.25;3.78;;;;;;;6.40;78.23;101117.34;5067892;28;20059;-62
2022/04/09 09:54:58;;;;;;;8.70;4.18;;;;;;;6.42;78.26;101112.44;5077160;28;20083;-62
2022/04/09 09:57:28;;;;;;;7.38;4.28;;;;;;;6.91;77.23;101117.22;5071689;28;20500;-63
2022/04/09 09:59:57;;;;;;;8.15;5.15;;;;;;;6.28;76.88;101125.03;5075994;28;20524;-62
2022/04/09 10:02:32;;;;;;;6.97;4.80;;;;;;;5.93;78.01;101141.44;5075150;28;20049;-61
2022/04/09 10:05:00;;;;;;;7.03;4.57;;;;;;;6.18;77.88;101137.91;5066304;28;20056;-61
2022/04/09 10:07:27;;;;;;;7.05;5.22;;;;;;;6.21;77.84;101140.91;5077180;28;20049;-60
2022/04/09 10:09:55;;;;;;;7.35;4.93;;;;;;;6.51;77.87;101145.53;5076474;28;20052;-58
2022/04/09 10:12:24;;;;;;;6.97;4.70;;;;;;;6.75;77.02;101152.03;5063104;28;20499;-59
2022/04/09 10:14:57;;;;;;;8.60;4.63;;;;;;;6.72;75.88;101155.34;5076742;28;20053;-55
2022/04/09 10:17:27;;;;;;;7.82;4.93;;;;;;;6.49;76.21;101151.28;5075505;28;20052;-57
2022/04/09 10:20:01;;;;;;;7.22;4.32;;;;;;;6.74;77.52;101158.63;5089841;28;20044;-60
2022/04/09 10:22:38;;;;;;;9.77;5.43;;;;;;;6.03;77.10;101166.09;5067884;28;20052;-61
2022/04/09 10:25:07;;;;;;;7.68;5.35;;;;;;;6.17;78.24;101161.69;5071209;28;20047;-58
2022/04/09 10:27:38;;;;;;;7.03;4.90;;;;;;;5.84;77.28;101167.66;5061267;28;20056;-58
2022/04/09 10:30:26;;;;;;;7.55;4.90;;;;;;;6.24;76.64;101169.63;5068544;28;20049;-57
2022/04/09 10:32:58;;;;;;;8.20;4.97;;;;;;;6.36;76.04;101170.19;5074863;28;20544;-55
2022/04/09 10:35:38;;;;;;;6.57;4.55;;;;;;;6.13;76.43;101179.75;5075840;28;20056;-59
2022/04/09 10:38:06;;;;;;;5.60;3.70;;;;;;;6.78;75.91;101178.88;5076480;28;20047;-56
2022/04/09 10:40:43;;;;;;;7.00;4.13;;;;;;;7.28;73.43;101175.16;5076400;28;20458;-56
2022/04/09 10:43:23;;;;;;;7.80;4.40;;;;;;;7.10;71.90;101181.22;5073228;28;20060;-57
2022/04/09 10:46:11;;;;;;;;;;;;;;;6.61;74.29;101179.16;5065252;28;20488;-57
2022/04/09 10:48:41;;;;;;;8.15;4.45;;;;;;;6.47;74.22;101185.47;5070406;28;19939;-55
2022/04/09 10:51:12;;;;;;;7.03;4.70;;;;;;;6.69;75.13;101184.06;5070170;28;20056;-59
2022/04/09 10:53:50;;;;;;;6.78;4.03;;;;;;;6.73;74.32;101187.09;5058079;28;20063;-57
2022/04/09 10:56:24;;;;;;;6.18;4.45;;;;;;;7.07;73.63;101190.84;5072173;28;20643;-57
2022/04/09 10:59:06;;;;;;;6.30;4.68;;;;;;;6.67;74.11;101194.50;5073671;28;20514;-56
2022/04/09 11:01:50;;;;;;;7.57;4.38;;;;;;;6.83;74.65;101190.63;5076224;28;20048;-56
2022/04/09 11:07:14;;;;;;;10.80;5.03;;;;;;;7.45;73.40;101190.16;5073817;28;20056;-57
2022/04/09 11:09:48;;;;;;;6.50;4.00;;;;;;;7.79;71.55;101193.00;5069333;28;20056;-57
2022/04/09 11:12:29;;;;;;;6.80;4.38;;;;;;;6.91;73.16;101199.38;5073002;28;20636;-59
2022/04/09 11:14:59;;;;;;;7.68;4.57;;;;;;;6.67;75.18;101205.47;5070789;28;20049;-57
2022/04/09 11:17:37;;;;;;;9.10;5.80;;;;;;;6.70;75.90;101204.91;5075834;28;20048;-59
2022/04/09 11:20:10;;;;;;;7.53;5.07;;;;;;;7.26;75.07;101196.53;5066139;28;20051;-58
2022/04/09 11:22:40;;;;;;;9.68;4.80;;;;;;;7.02;74.55;101203.72;5069943;28;20123;-57
2022/04/09 11:25:28;;;;;;;6.53;4.15;;;;;;;7.33;74.05;101211.56;5061917;28;20040;-56
2022/04/09 11:28:13;;;;;;;9.98;5.57;;;;;;;7.47;72.96;101209.88;5072760;28;20055;-52
2022/04/09 11:31:02;;;;;;;9.02;5.78;;;;;;;7.44;71.64;101206.88;5074977;28;20380;-52
2022/04/09 11:33:29;;;;;;;8.48;4.95;;;;;;;6.93;71.98;101211.69;5073369;28;20537;-58
2022/04/09 11:35:57;;;;;;;5.65;3.63;;;;;;;6.77;72.32;101219.13;5075258;28;20048;-57
2022/04/09 11:38:25;;;;;;;6.13;3.78;;;;;;;6.87;71.91;101212.00;5067218;28;20057;-55
2022/04/09 11:40:54;;;;;;;6.68;4.30;;;;;;;6.73;71.92;101215.28;5066859;28;20057;-57
2022/04/09 11:43:22;;;;;;;5.50;3.77;;;;;;;7.09;72.38;101207.84;5056914;28;20049;-54
2022/04/09 11:45:50;;;;;;;6.20;3.80;;;;;;;7.49;70.51;101209.59;5066776;28;20291;-59
2022/04/09 11:48:22;;;;;;;5.80;3.40;;;;;;;7.73;68.27;101205.91;5060024;28;20057;-56
2022/04/09 11:50:49;;;;;;;5.28;3.65;;;;;;;7.23;69.02;101213.53;5075097;28;20049;-56
2022/04/09 11:53:16;;;;;;;5.88;3.50;;;;;;;7.45;68.23;101227.69;5071436;28;20048;-58